Time;durP1;ratioP1;P1;durP2;ratioP2;P2;SDS_P1;SDS_P2;PMS_P1;PMS_P2;Temp;Humidity;BMP_temperature;BMP_pressure;BME280_temperature;BME280_humidity;BME280_pressure;Samples;Min_cycle;Max_cycle;Signal;HPM_P1;HPM_P2
2023/03/11 00:01:41;;;;;;;0.50;0.30;;;14.80;1.00;;;;;;4956078;29;20023;-62
2023/03/11 00:04:07;;;;;;;2.70;0.75;;;14.90;1.00;;;;;;4956291;29;20031;-62
2023/03/11 00:06:35;;;;;;;1.45;0.60;;;14.90;1.00;;;;;;4956055;29;20094;-63
2023/03/11 00:09:01;;;;;;;2.75;0.40;;;14.80;1.00;;;;;;4955794;29;20058;-62
2023/03/11 00:11:26;;;;;;;1.70;0.30;;;14.70;1.00;;;;;;4956320;29;20423;-63
2023/03/11 00:13:52;;;;;;;1.67;0.45;;;14.80;1.00;;;;;;4955181;29;20082;-62
2023/03/11 00:16:18;;;;;;;1.25;0.52;;;14.80;1.00;;;;;;4956058;29;20087;-62
2023/03/11 00:18:43;;;;;;;0.93;0.38;;;14.80;1.00;;;;;;4955714;29;20031;-62
2023/03/11 00:21:17;;;;;;;2.28;0.43;;;14.90;1.00;;;;;;4955765;29;20393;-62
2023/03/11 00:23:43;;;;;;;3.03;0.67;;;14.80;1.00;;;;;;4955783;29;20042;-62
2023/03/11 00:26:09;;;;;;;1.75;0.43;;;14.90;1.00;;;;;;4955599;29;20405;-62
2023/03/11 00:28:35;;;;;;;2.15;0.38;;;14.90;1.00;;;;;;4955541;29;20032;-62
2023/03/11 00:31:01;;;;;;;2.58;0.52;;;14.80;1.00;;;;;;4956106;29;20070;-62
2023/03/11 00:33:27;;;;;;;1.33;0.40;;;14.90;1.00;;;;;;4955702;29;20043;-62
2023/03/11 00:35:53;;;;;;;3.22;0.60;;;14.90;1.00;;;;;;4955372;29;20027;-62
2023/03/11 00:38:19;;;;;;;0.50;0.30;;;14.80;1.00;;;;;;4955060;28;20389;-62
2023/03/11 00:40:46;;;;;;;0.35;0.20;;;14.80;1.00;;;;;;4937791;29;20058;-62
2023/03/11 00:43:13;;;;;;;0.30;0.30;;;14.80;1.00;;;;;;4955842;29;20038;-62
2023/03/11 00:45:39;;;;;;;0.88;0.43;;;14.80;1.00;;;;;;4955209;29;20090;-62
2023/03/11 00:48:06;;;;;;;0.80;0.47;;;14.80;1.00;;;;;;4954068;29;20031;-62
2023/03/11 00:50:34;;;;;;;1.02;0.60;;;14.80;1.00;;;;;;4955257;29;20027;-62
2023/03/11 00:53:01;;;;;;;1.95;0.52;;;14.70;1.00;;;;;;4954971;29;20459;-62
2023/03/11 00:55:30;;;;;;;0.68;0.30;;;14.70;1.00;;;;;;4955224;29;20090;-62
2023/03/11 00:57:59;;;;;;;1.38;0.40;;;14.60;1.00;;;;;;4954984;29;20038;-62
2023/03/11 01:00:25;;;;;;;1.30;0.30;;;14.70;1.00;;;;;;4955009;29;20031;-62
2023/03/11 01:02:53;;;;;;;1.30;0.45;;;14.70;1.00;;;;;;4955070;29;20031;-62
2023/03/11 01:05:21;;;;;;;3.60;0.82;;;14.80;1.00;;;;;;4954866;29;20036;-61
2023/03/11 01:07:47;;;;;;;2.65;0.68;;;14.80;1.00;;;;;;4954964;29;20387;-62
2023/03/11 01:10:13;;;;;;;3.40;1.38;;;14.90;1.00;;;;;;4954999;29;20027;-62
2023/03/11 01:12:40;;;;;;;6.32;1.83;;;14.80;1.00;;;;;;4955052;29;20043;-62
2023/03/11 01:15:06;;;;;;;4.78;2.00;;;14.80;1.00;;;;;;4937609;29;20081;-62
2023/03/11 01:17:32;;;;;;;6.25;1.60;;;14.80;1.00;;;;;;4954895;29;20023;-63
2023/03/11 01:19:58;;;;;;;3.10;1.10;;;14.80;1.00;;;;;;4955201;29;20046;-62
2023/03/11 01:22:23;;;;;;;2.65;1.00;;;14.60;1.00;;;;;;4954931;29;20042;-62
2023/03/11 01:24:49;;;;;;;2.22;1.20;;;14.50;1.00;;;;;;4954809;29;20114;-62
2023/03/11 01:27:15;;;;;;;5.32;1.00;;;14.60;1.00;;;;;;4955023;29;20031;-62
2023/03/11 01:29:40;;;;;;;2.08;1.08;;;14.50;1.00;;;;;;4954604;29;20023;-62
2023/03/11 01:32:06;;;;;;;4.78;0.80;;;14.40;1.00;;;;;;4955015;29;20037;-62
2023/03/11 01:34:34;;;;;;;3.28;1.17;;;14.40;1.00;;;;;;4954830;29;20047;-62
2023/03/11 01:37:01;;;;;;;1.92;0.98;;;14.50;1.00;;;;;;4954506;29;20047;-62
2023/03/11 01:39:27;;;;;;;1.05;0.77;;;14.50;1.00;;;;;;4954773;29;20127;-62
2023/03/11 01:41:54;;;;;;;2.17;0.75;;;14.40;1.00;;;;;;4937408;29;20055;-62
2023/03/11 01:44:20;;;;;;;0.70;0.32;;;14.40;1.00;;;;;;4953966;29;20036;-62
2023/03/11 01:46:52;;;;;;;0.98;0.35;;;14.40;1.00;;;;;;4954784;29;20034;-62
2023/03/11 01:49:19;;;;;;;1.15;0.38;;;14.30;1.00;;;;;;4954618;29;20115;-62
2023/03/11 01:51:49;;;;;;;1.10;0.50;;;14.30;1.00;;;;;;4958369;28;20111;-62
2023/03/11 01:54:25;;;;;;;2.25;0.40;;;14.20;1.00;;;;;;4958381;29;20557;-62
2023/03/11 01:56:52;;;;;;;0.65;0.40;;;14.10;1.00;;;;;;4946088;29;20023;-62
2023/03/11 01:59:22;;;;;;;1.38;0.52;;;14.20;1.00;;;;;;4958251;29;20035;-62
2023/03/11 02:02:01;;;;;;;2.05;0.50;;;14.30;1.00;;;;;;4958191;29;20500;-62
2023/03/11 02:04:33;;;;;;;0.65;0.20;;;14.30;1.00;;;;;;4958430;29;20030;-62
2023/03/11 02:07:00;;;;;;;0.75;0.60;;;14.30;1.00;;;;;;4929503;29;20584;-62
2023/03/11 02:09:26;;;;;;;1.42;0.40;;;14.30;1.00;;;;;;4958055;29;20477;-62
2023/03/11 02:11:52;;;;;;;1.38;0.30;;;14.30;1.00;;;;;;4958086;29;20019;-62
2023/03/11 02:14:19;;;;;;;1.55;0.45;;;14.30;1.00;;;;;;4957995;29;20102;-62
2023/03/11 02:16:45;;;;;;;1.60;0.60;;;14.30;1.00;;;;;;4957960;29;20023;-63
2023/03/11 02:19:25;;;;;;;0.40;0.38;;;14.30;1.00;;;;;;4940751;29;20061;-62
2023/03/11 02:21:51;;;;;;;0.65;0.20;;;14.30;1.00;;;;;;4957240;29;20484;-62
2023/03/11 02:24:29;;;;;;;1.27;0.20;;;14.30;1.00;;;;;;4957298;29;20054;-62
2023/03/11 02:27:05;;;;;;;1.17;0.30;;;14.20;1.00;;;;;;4957123;29;20066;-62
2023/03/11 02:29:32;;;;;;;0.47;0.30;;;14.10;1.00;;;;;;4939931;29;20086;-62
2023/03/11 02:32:07;;;;;;;0.47;0.20;;;14.20;1.00;;;;;;4957242;29;20042;-62
2023/03/11 02:34:35;;;;;;;0.32;0.32;;;14.20;1.00;;;;;;4939907;29;20561;-62
2023/03/11 02:37:07;;;;;;;1.15;0.45;;;14.10;1.00;;;;;;4957307;29;20023;-62
2023/03/11 02:39:37;;;;;;;1.02;0.30;;;14.20;1.00;;;;;;4957682;29;20042;-62
2023/03/11 02:42:14;;;;;;;0.45;0.40;;;14.00;1.00;;;;;;4957407;29;20493;-62
2023/03/11 02:44:41;;;;;;;0.65;0.38;;;14.00;1.00;;;;;;4957692;29;20039;-62
2023/03/11 02:47:07;;;;;;;1.45;0.45;;;14.20;1.00;;;;;;4957487;29;20085;-62
2023/03/11 02:49:34;;;;;;;1.02;0.32;;;14.20;1.00;;;;;;4957631;29;20050;-62
2023/03/11 02:52:00;;;;;;;1.25;0.35;;;14.30;1.00;;;;;;4957427;29;20027;-62
2023/03/11 02:54:25;;;;;;;1.35;0.50;;;14.30;1.00;;;;;;4957101;29;20431;-62
2023/03/11 02:56:51;;;;;;;1.98;0.50;;;14.30;1.00;;;;;;4957314;29;20023;-62
2023/03/11 02:59:17;;;;;;;0.85;0.45;;;14.30;1.00;;;;;;4957222;29;20070;-62
2023/03/11 03:01:42;;;;;;;1.42;0.88;;;14.20;1.00;;;;;;4956385;28;20371;-62
2023/03/11 03:04:08;;;;;;;0.60;0.38;;;14.20;1.00;;;;;;4957200;29;20081;-62
2023/03/11 03:06:34;;;;;;;0.85;0.40;;;14.20;1.00;;;;;;4956924;29;20508;-62
2023/03/11 03:08:59;;;;;;;1.02;0.50;;;14.20;1.00;;;;;;4939718;29;20063;-62
2023/03/11 03:11:25;;;;;;;0.50;0.40;;;14.20;1.00;;;;;;4956676;29;20023;-62
2023/03/11 03:13:51;;;;;;;1.27;0.45;;;14.20;1.00;;;;;;4956177;29;20046;-62
2023/03/11 03:16:16;;;;;;;0.85;0.52;;;14.10;1.00;;;;;;4957038;29;20034;-62
2023/03/11 03:18:42;;;;;;;0.65;0.43;;;14.20;1.00;;;;;;4956971;29;20027;-62
2023/03/11 03:21:08;;;;;;;0.52;0.32;;;14.20;1.00;;;;;;4956813;29;20034;-62
2023/03/11 03:23:36;;;;;;;2.65;0.50;;;14.10;1.00;;;;;;4957169;29;20035;-62
2023/03/11 03:26:03;;;;;;;0.50;0.45;;;14.10;1.00;;;;;;4956731;29;20110;-62
2023/03/11 03:28:28;;;;;;;1.13;0.30;;;14.10;1.00;;;;;;4956721;29;20041;-62
2023/03/11 03:30:54;;;;;;;2.42;0.30;;;14.10;1.00;;;;;;4956483;29;20106;-62
2023/03/11 03:33:20;;;;;;;1.98;0.28;;;14.10;1.00;;;;;;4956687;29;20039;-62
2023/03/11 03:35:45;;;;;;;1.35;0.52;;;14.10;1.00;;;;;;4956525;29;20035;-62
2023/03/11 03:38:12;;;;;;;1.63;0.47;;;14.00;1.00;;;;;;4956550;29;20058;-62
2023/03/11 03:40:38;;;;;;;1.67;0.38;;;13.90;1.00;;;;;;4956497;29;20070;-62
2023/03/11 03:43:05;;;;;;;1.33;0.40;;;13.90;1.00;;;;;;4956362;29;20031;-62
2023/03/11 03:45:30;;;;;;;1.55;0.40;;;13.80;1.00;;;;;;4956330;29;20054;-62
2023/03/11 03:47:56;;;;;;;1.60;0.50;;;13.80;1.00;;;;;;4956522;29;20066;-62
2023/03/11 03:50:22;;;;;;;0.60;0.20;;;13.90;1.00;;;;;;4956328;29;20110;-62
2023/03/11 03:52:48;;;;;;;0.80;0.40;;;13.90;1.00;;;;;;4956192;29;20193;-62
2023/03/11 03:55:14;;;;;;;1.65;0.40;;;13.90;1.00;;;;;;4956601;29;20532;-62
2023/03/11 03:57:39;;;;;;;1.15;0.20;;;13.90;1.00;;;;;;4956235;29;20027;-60
2023/03/11 04:00:08;;;;;;;0.93;0.32;;;13.80;1.00;;;;;;4955987;29;20031;-60
2023/03/11 04:02:34;;;;;;;1.30;0.38;;;13.80;1.00;;;;;;4955798;29;20378;-60
2023/03/11 04:05:00;;;;;;;0.50;0.20;;;13.70;1.00;;;;;;4955892;29;20042;-61
2023/03/11 04:07:26;;;;;;;0.95;0.20;;;13.70;1.00;;;;;;4955812;29;20051;-60
2023/03/11 04:09:51;;;;;;;2.20;0.60;;;13.80;1.00;;;;;;4956084;29;20035;-60
2023/03/11 04:12:17;;;;;;;2.83;0.20;;;13.80;1.00;;;;;;4955875;29;20564;-61
2023/03/11 04:14:43;;;;;;;0.50;0.25;;;13.80;1.00;;;;;;4955707;28;20122;-60
2023/03/11 04:17:13;;;;;;;1.92;0.22;;;13.80;1.00;;;;;;4942258;29;20389;-61
2023/03/11 04:19:39;;;;;;;0.45;0.40;;;13.80;1.00;;;;;;4955676;29;20085;-61
2023/03/11 04:22:05;;;;;;;0.85;0.22;;;13.80;1.00;;;;;;4955503;29;20485;-60
2023/03/11 04:24:31;;;;;;;0.50;0.30;;;13.80;1.00;;;;;;4938482;29;20107;-60
2023/03/11 04:26:56;;;;;;;2.05;0.52;;;13.70;1.00;;;;;;4955539;29;20102;-60
2023/03/11 04:29:22;;;;;;;0.82;0.40;;;13.80;1.00;;;;;;4955579;29;20019;-60
2023/03/11 04:31:48;;;;;;;0.88;0.50;;;13.70;1.00;;;;;;4955775;29;20035;-60
2023/03/11 04:34:13;;;;;;;1.20;0.25;;;13.70;1.00;;;;;;4955687;29;20474;-60
2023/03/11 04:36:39;;;;;;;0.60;0.40;;;13.80;1.00;;;;;;4955280;29;20441;-60
2023/03/11 04:39:05;;;;;;;0.73;0.68;;;13.80;1.00;;;;;;4938317;29;20035;-60
2023/03/11 04:41:31;;;;;;;0.47;0.35;;;13.80;1.00;;;;;;4955318;29;20027;-61
2023/03/11 04:43:58;;;;;;;1.50;0.30;;;13.80;1.00;;;;;;4955673;29;20034;-60
2023/03/11 04:46:24;;;;;;;2.10;0.50;;;13.80;1.00;;;;;;4955224;29;20037;-60
2023/03/11 04:48:50;;;;;;;1.60;0.88;;;13.70;1.00;;;;;;4955186;29;20055;-60
2023/03/11 04:51:16;;;;;;;2.20;0.43;;;13.60;1.00;;;;;;4955366;29;20105;-61
2023/03/11 04:53:41;;;;;;;0.45;0.30;;;13.60;1.00;;;;;;4955410;29;20097;-60
2023/03/11 04:56:07;;;;;;;1.20;0.40;;;13.70;1.00;;;;;;4955479;29;20098;-60
2023/03/11 04:58:33;;;;;;;0.57;0.40;;;13.70;1.00;;;;;;4955184;29;20035;-60
2023/03/11 05:00:58;;;;;;;2.08;0.60;;;13.70;1.00;;;;;;4955441;29;20118;-60
2023/03/11 05:03:24;;;;;;;1.10;0.57;;;13.70;1.00;;;;;;4955134;29;20493;-60
2023/03/11 05:05:51;;;;;;;1.85;0.43;;;13.60;1.00;;;;;;4954718;29;20078;-60
2023/03/11 05:08:18;;;;;;;0.63;0.47;;;13.60;1.00;;;;;;4954932;29;20035;-60
2023/03/11 05:10:44;;;;;;;1.25;0.45;;;13.50;1.00;;;;;;4954887;29;20079;-60
2023/03/11 05:13:10;;;;;;;0.93;0.28;;;13.60;1.00;;;;;;4954941;29;20039;-60
2023/03/11 05:15:36;;;;;;;1.40;0.50;;;13.60;1.00;;;;;;4954876;29;20045;-60
2023/03/11 05:18:03;;;;;;;2.28;0.45;;;13.60;1.00;;;;;;4954904;29;20062;-60
2023/03/11 05:20:30;;;;;;;0.68;0.47;;;13.60;1.00;;;;;;4954804;29;20090;-60
2023/03/11 05:22:55;;;;;;;1.38;0.40;;;13.60;1.00;;;;;;4955169;29;20110;-60
2023/03/11 05:25:21;;;;;;;1.40;0.40;;;13.60;1.00;;;;;;4954513;29;20122;-60
2023/03/11 05:27:46;;;;;;;1.35;0.70;;;13.60;1.00;;;;;;4954764;29;20111;-60
2023/03/11 05:30:14;;;;;;;2.15;0.47;;;13.70;1.00;;;;;;4954759;29;20032;-60
2023/03/11 05:32:39;;;;;;;1.60;0.85;;;13.60;1.00;;;;;;4954635;29;20031;-60
2023/03/11 05:35:05;;;;;;;0.73;0.55;;;13.50;1.00;;;;;;4954711;29;20501;-62
2023/03/11 05:37:31;;;;;;;1.48;0.90;;;13.50;1.00;;;;;;4954843;29;20489;-61
2023/03/11 05:39:57;;;;;;;1.83;0.40;;;13.60;1.00;;;;;;4954719;29;20068;-61
2023/03/11 05:42:22;;;;;;;1.63;0.50;;;13.70;1.00;;;;;;4954583;29;20039;-61
2023/03/11 05:44:48;;;;;;;2.25;0.63;;;13.60;1.00;;;;;;4954829;29;20122;-61
2023/03/11 05:47:15;;;;;;;1.90;0.55;;;13.60;1.00;;;;;;4954503;29;20023;-61
2023/03/11 05:49:41;;;;;;;0.80;0.65;;;13.60;1.00;;;;;;4954525;29;20486;-61
2023/03/11 05:52:07;;;;;;;0.50;0.40;;;13.60;1.00;;;;;;4954860;29;20082;-61
2023/03/11 05:54:32;;;;;;;1.63;0.60;;;13.60;1.00;;;;;;4954210;29;20516;-61
2023/03/11 05:56:58;;;;;;;0.80;0.60;;;13.60;1.00;;;;;;4954472;29;20130;-61
2023/03/11 05:59:24;;;;;;;1.50;0.63;;;13.60;1.00;;;;;;4937277;29;20046;-61
2023/03/11 06:01:49;;;;;;;1.98;0.40;;;13.50;1.00;;;;;;4937225;29;20429;-61
2023/03/11 06:04:15;;;;;;;0.63;0.30;;;13.40;1.00;;;;;;4954548;29;20043;-62
2023/03/11 06:06:41;;;;;;;3.95;0.50;;;13.40;1.00;;;;;;4954046;29;20054;-62
2023/03/11 06:09:12;;;;;;;3.90;0.70;;;13.40;1.00;;;;;;4954312;29;20091;-61
2023/03/11 06:11:37;;;;;;;2.00;0.73;;;13.50;1.00;;;;;;4954348;29;20099;-61
2023/03/11 06:14:03;;;;;;;2.80;0.80;;;13.50;1.00;;;;;;4954282;29;20126;-61
2023/03/11 06:16:28;;;;;;;2.90;1.55;;;13.50;1.00;;;;;;4954417;29;20019;-61
2023/03/11 06:18:54;;;;;;;1.02;0.82;;;13.40;1.00;;;;;;4954300;29;20034;-61
2023/03/11 06:21:22;;;;;;;1.50;0.82;;;13.50;1.00;;;;;;4954269;29;20094;-61
2023/03/11 06:23:49;;;;;;;1.35;0.45;;;13.40;1.00;;;;;;4937010;29;20027;-62
2023/03/11 06:26:17;;;;;;;1.90;0.50;;;13.40;1.00;;;;;;4954339;29;20063;-61
2023/03/11 06:28:44;;;;;;;2.17;0.40;;;13.50;1.00;;;;;;4954112;29;20036;-61
2023/03/11 06:31:28;;;;;;;1.85;0.40;;;13.60;1.00;;;;;;4954449;29;20027;-61
2023/03/11 06:33:54;;;;;;;1.23;0.40;;;13.60;1.00;;;;;;4936853;29;20051;-61
2023/03/11 06:36:21;;;;;;;1.35;0.38;;;13.60;1.00;;;;;;4954227;28;20029;-61
2023/03/11 06:38:48;;;;;;;0.73;0.60;;;13.60;1.00;;;;;;4957046;29;20035;-61
2023/03/11 06:41:15;;;;;;;1.02;0.30;;;13.60;1.00;;;;;;4957580;29;20117;-61
2023/03/11 06:43:41;;;;;;;0.65;0.40;;;13.60;1.00;;;;;;4957741;29;20086;-61
2023/03/11 06:46:12;;;;;;;0.52;0.22;;;13.50;1.00;;;;;;4957396;29;20390;-61
2023/03/11 06:48:38;;;;;;;1.13;0.40;;;13.50;1.00;;;;;;4957796;29;20050;-62
2023/03/11 06:51:04;;;;;;;1.48;0.50;;;13.60;1.00;;;;;;4957408;29;20023;-61
2023/03/11 06:53:30;;;;;;;1.10;0.28;;;13.70;1.00;;;;;;4957569;29;20051;-62
2023/03/11 06:56:03;;;;;;;1.42;0.38;;;13.70;1.00;;;;;;4957300;29;20090;-61
2023/03/11 06:58:29;;;;;;;1.33;0.30;;;13.80;1.00;;;;;;4957343;29;20039;-61
2023/03/11 07:00:59;;;;;;;0.73;0.47;;;13.80;1.00;;;;;;4957450;29;20032;-61
2023/03/11 07:03:25;;;;;;;0.65;0.63;;;13.80;1.00;;;;;;4957250;29;20024;-61
2023/03/11 07:05:51;;;;;;;0.65;0.52;;;13.80;1.00;;;;;;4957026;29;20095;-61
2023/03/11 07:08:17;;;;;;;1.48;0.95;;;13.90;1.00;;;;;;4957020;29;20038;-61
2023/03/11 07:10:42;;;;;;;3.22;1.25;;;13.80;1.00;;;;;;4947588;29;20027;-61
2023/03/11 07:13:08;;;;;;;1.02;0.90;;;13.90;1.00;;;;;;4940180;29;20043;-61
2023/03/11 07:15:34;;;;;;;1.05;0.68;;;13.90;1.00;;;;;;4956813;29;20019;-62
2023/03/11 07:18:00;;;;;;;1.10;0.55;;;13.90;1.00;;;;;;4956907;29;20039;-62
2023/03/11 07:20:26;;;;;;;0.88;0.55;;;13.90;1.00;;;;;;4939602;29;20392;-61
2023/03/11 07:22:52;;;;;;;1.30;0.90;;;14.00;1.00;;;;;;4956882;29;20067;-61
2023/03/11 07:25:17;;;;;;;1.50;0.68;;;14.10;1.00;;;;;;4956742;29;20096;-61
2023/03/11 07:27:43;;;;;;;2.58;0.70;;;14.00;1.00;;;;;;4956945;29;20035;-62
2023/03/11 07:30:10;;;;;;;0.98;0.50;;;13.90;1.00;;;;;;4956729;29;20098;-61
2023/03/11 07:32:36;;;;;;;1.70;1.10;;;14.00;1.00;;;;;;4943387;29;20023;-62
2023/03/11 07:35:01;;;;;;;4.63;0.93;;;14.10;1.00;;;;;;4956715;29;20040;-61
2023/03/11 07:37:27;;;;;;;2.78;0.90;;;14.10;1.00;;;;;;4956385;29;20427;-62
2023/03/11 07:39:53;;;;;;;2.35;1.10;;;14.10;1.00;;;;;;4956800;29;20050;-61
2023/03/11 07:42:19;;;;;;;2.60;0.88;;;14.10;1.00;;;;;;4956394;29;20035;-61
2023/03/11 07:44:44;;;;;;;1.95;0.75;;;14.20;1.00;;;;;;4955222;29;20037;-63
2023/03/11 07:47:10;;;;;;;1.45;0.55;;;14.20;1.00;;;;;;4954821;29;20042;-62
2023/03/11 07:49:35;;;;;;;2.13;0.82;;;14.20;1.00;;;;;;4955331;28;20027;-63
2023/03/11 07:52:01;;;;;;;2.83;0.60;;;14.20;1.00;;;;;;4956516;29;20028;-62
2023/03/11 07:54:27;;;;;;;1.42;0.85;;;14.30;1.00;;;;;;4956333;29;20535;-63
2023/03/11 07:56:52;;;;;;;1.15;0.60;;;14.30;1.00;;;;;;4956411;29;20500;-63
2023/03/11 07:59:18;;;;;;;2.08;0.57;;;14.30;1.00;;;;;;4956153;29;20042;-62
2023/03/11 08:01:46;;;;;;;1.60;0.55;;;14.40;1.00;;;;;;4956053;29;20500;-63
2023/03/11 08:04:13;;;;;;;1.60;0.60;;;14.40;1.00;;;;;;4956052;29;20031;-63
2023/03/11 08:06:41;;;;;;;2.10;0.80;;;14.50;1.00;;;;;;4955918;29;20116;-62
2023/03/11 08:09:08;;;;;;;1.45;0.63;;;14.60;1.00;;;;;;4955762;29;20089;-62
2023/03/11 08:11:35;;;;;;;1.23;0.43;;;14.60;1.00;;;;;;4956338;29;20034;-62
2023/03/11 08:14:01;;;;;;;0.65;0.40;;;14.60;1.00;;;;;;4955815;29;20049;-63
2023/03/11 08:16:28;;;;;;;1.98;0.40;;;14.70;1.00;;;;;;4955825;29;20019;-63
2023/03/11 08:18:53;;;;;;;0.93;0.70;;;14.80;1.00;;;;;;4955901;29;20568;-62
2023/03/11 08:21:22;;;;;;;0.77;0.30;;;14.80;1.00;;;;;;4955695;29;20047;-64
2023/03/11 08:23:49;;;;;;;0.25;0.17;;;14.90;1.00;;;;;;4955806;29;20031;-63
2023/03/11 08:26:18;;;;;;;1.02;0.22;;;14.90;1.00;;;;;;4955790;29;20030;-63
2023/03/11 08:28:44;;;;;;;0.70;0.30;;;15.00;1.00;;;;;;4955736;29;20031;-62
2023/03/11 08:31:18;;;;;;;0.88;0.40;;;15.00;1.00;;;;;;4955963;29;20564;-62
2023/03/11 08:33:48;;;;;;;0.68;0.57;;;15.10;1.00;;;;;;4955630;29;20086;-62
2023/03/11 08:36:16;;;;;;;1.95;0.22;;;15.10;1.00;;;;;;4955916;29;20023;-62
2023/03/11 08:38:41;;;;;;;0.40;0.40;;;15.20;1.00;;;;;;4955317;29;20497;-63
2023/03/11 08:41:07;;;;;;;2.75;0.28;;;15.20;1.00;;;;;;4955513;29;20091;-62
2023/03/11 08:43:33;;;;;;;0.22;0.20;;;15.30;1.00;;;;;;4955478;29;20025;-62
2023/03/11 08:46:01;;;;;;;1.10;0.20;;;15.30;1.00;;;;;;4955719;29;20094;-62
2023/03/11 08:48:27;;;;;;;0.30;0.10;;;15.40;1.00;;;;;;4955258;29;20070;-62
2023/03/11 08:50:53;;;;;;;0.20;0.20;;;15.40;1.00;;;;;;4955315;29;20066;-62
2023/03/11 08:53:19;;;;;;;1.45;0.32;;;15.50;1.00;;;;;;4955486;29;20469;-62
2023/03/11 08:55:44;;;;;;;1.38;0.32;;;15.60;1.00;;;;;;4954972;29;20023;-62
2023/03/11 08:58:11;;;;;;;0.25;0.22;;;15.60;1.00;;;;;;4955104;29;20027;-60
2023/03/11 09:00:36;;;;;;;1.85;0.22;;;15.70;1.00;;;;;;4954508;28;20024;-60
2023/03/11 09:03:02;;;;;;;0.43;0.30;;;15.80;1.00;;;;;;4955466;29;20035;-60
2023/03/11 09:05:28;;;;;;;2.50;0.30;;;15.80;1.00;;;;;;4955127;29;20437;-61
2023/03/11 09:07:53;;;;;;;0.85;0.20;;;15.90;1.00;;;;;;4954655;29;20055;-60
2023/03/11 09:10:19;;;;;;;0.75;0.43;;;16.00;1.00;;;;;;4955002;29;20105;-60
2023/03/11 09:12:45;;;;;;;0.52;0.20;;;16.10;1.00;;;;;;4954972;29;20477;-60
2023/03/11 09:15:10;;;;;;;1.50;0.10;;;16.10;1.00;;;;;;4954945;29;20090;-60
2023/03/11 09:17:36;;;;;;;2.08;0.32;;;16.20;1.00;;;;;;4954795;29;20023;-60
2023/03/11 09:20:03;;;;;;;3.42;0.28;;;16.30;1.00;;;;;;4954867;29;20473;-62
2023/03/11 09:22:28;;;;;;;0.55;0.30;;;16.40;1.00;;;;;;4955037;29;20034;-63
2023/03/11 09:24:55;;;;;;;1.65;0.20;;;16.40;1.00;;;;;;4954956;29;20027;-63
2023/03/11 09:27:20;;;;;;;1.38;0.30;;;16.50;1.00;;;;;;4955067;29;20034;-62
2023/03/11 09:29:46;;;;;;;1.10;0.20;;;16.50;1.00;;;;;;4954978;29;20028;-62
2023/03/11 09:32:13;;;;;;;0.63;0.20;;;16.60;1.00;;;;;;4954871;29;20035;-62
2023/03/11 09:34:39;;;;;;;0.55;0.20;;;16.70;1.00;;;;;;4946551;29;20047;-62
2023/03/11 09:37:05;;;;;;;0.63;0.20;;;16.80;1.00;;;;;;4954691;29;20093;-62
2023/03/11 09:39:30;;;;;;;2.75;0.10;;;16.80;1.00;;;;;;4954660;29;20038;-62
2023/03/11 09:42:19;;;;;;;0.47;0.10;;;16.80;1.00;;;;;;4937436;29;20028;-63
2023/03/11 09:45:08;;;;;;;1.48;0.30;;;17.00;1.00;;;;;;4954472;29;20107;-62
2023/03/11 09:47:49;;;;;;;0.10;0.10;;;16.90;1.00;;;;;;4943966;29;20031;-62
2023/03/11 09:50:23;;;;;;;1.55;0.20;;;17.00;1.00;;;;;;4937411;29;20035;-62
2023/03/11 09:52:51;;;;;;;0.17;0.10;;;17.20;1.00;;;;;;4954432;29;20495;-60
2023/03/11 09:55:29;;;;;;;0.60;0.20;;;17.10;1.00;;;;;;4954833;29;20102;-60
2023/03/11 09:57:58;;;;;;;0.20;0.10;;;17.30;1.00;;;;;;4954391;29;20034;-60
2023/03/11 10:00:24;;;;;;;0.30;0.20;;;17.40;1.00;;;;;;4954479;29;20465;-60
2023/03/11 10:02:50;;;;;;;0.57;0.20;;;17.40;1.00;;;;;;4954704;29;20125;-60
2023/03/11 10:05:23;;;;;;;0.47;0.25;;;17.50;1.00;;;;;;4954637;29;20532;-60
2023/03/11 10:08:02;;;;;;;1.00;0.10;;;17.50;1.00;;;;;;4923853;29;20130;-60
2023/03/11 10:10:38;;;;;;;0.82;0.00;;;17.60;1.00;;;;;;4937158;28;20477;-60
2023/03/11 10:13:06;;;;;;;0.90;0.00;;;17.70;1.00;;;;;;4958398;29;20035;-60
2023/03/11 10:15:35;;;;;;;0.15;0.15;;;17.70;1.00;;;;;;4958162;29;20035;-60
2023/03/11 10:18:03;;;;;;;0.50;0.40;;;17.80;1.00;;;;;;4944543;29;20031;-60
2023/03/11 10:20:43;;;;;;;1.20;0.50;;;18.00;1.00;;;;;;4958145;29;20047;-60
2023/03/11 10:23:35;;;;;;;0.40;0.10;;;18.00;1.00;;;;;;4958265;29;20058;-60
2023/03/11 10:26:27;;;;;;;0.10;0.10;;;17.90;1.00;;;;;;4930479;29;20046;-60
2023/03/11 10:29:10;;;;;;;2.20;0.10;;;18.20;1.00;;;;;;4958102;29;20039;-60
2023/03/11 10:31:45;;;;;;;0.95;0.00;;;18.20;1.00;;;;;;4957717;29;20020;-60
2023/03/11 10:34:27;;;;;;;0.52;0.10;;;18.30;1.00;;;;;;4957767;29;20047;-60
2023/03/11 10:37:00;;;;;;;0.47;0.10;;;18.20;1.00;;;;;;4957591;29;20429;-59
2023/03/11 10:39:27;;;;;;;1.35;0.00;;;18.30;1.00;;;;;;4957835;29;20023;-59
2023/03/11 10:42:00;;;;;;;0.90;0.10;;;18.40;1.00;;;;;;4957687;29;20030;-60
2023/03/11 10:44:39;;;;;;;0.38;0.10;;;18.40;1.00;;;;;;4957522;29;20102;-60
2023/03/11 10:47:09;;;;;;;1.27;0.20;;;18.60;1.00;;;;;;4945423;29;20023;-60
2023/03/11 10:49:35;;;;;;;2.40;0.10;;;18.70;1.00;;;;;;4957709;29;20031;-59
2023/03/11 10:52:02;;;;;;;3.30;0.20;;;18.80;1.00;;;;;;4936968;29;20095;-61
2023/03/11 10:54:44;;;;;;;3.35;0.10;;;18.70;1.00;;;;;;4936938;29;20040;-59
2023/03/11 10:57:27;;;;;;;1.65;0.10;;;18.60;1.00;;;;;;4944312;29;20039;-60
2023/03/11 10:59:54;;;;;;;0.20;0.10;;;18.80;1.00;;;;;;4957542;29;20043;-60
2023/03/11 11:02:30;;;;;;;1.15;0.08;;;18.80;1.00;;;;;;4957408;29;20031;-60
2023/03/11 11:05:19;;;;;;;1.85;0.20;;;18.90;1.00;;;;;;4940011;29;20436;-60
2023/03/11 11:07:51;;;;;;;0.65;0.10;;;18.80;1.00;;;;;;4956878;29;20134;-60
2023/03/11 11:10:22;;;;;;;1.15;0.10;;;19.00;1.00;;;;;;4957276;29;20019;-60
2023/03/11 11:13:07;;;;;;;0.13;0.10;;;19.10;1.00;;;;;;4956978;29;20027;-60
2023/03/11 11:15:34;;;;;;;1.55;0.13;;;19.10;1.00;;;;;;4957292;29;20043;-60
2023/03/11 11:18:23;;;;;;;1.27;0.32;;;19.00;1.00;;;;;;4956918;29;20040;-60
2023/03/11 11:21:13;;;;;;;1.30;0.45;;;18.90;1.00;;;;;;4957039;29;20039;-60
2023/03/11 11:24:00;;;;;;;1.65;0.95;;;19.10;1.00;;;;;;4956362;28;20045;-60
2023/03/11 11:26:26;;;;;;;2.00;1.58;;;19.30;1.00;;;;;;4956816;29;20031;-60
2023/03/11 11:29:10;;;;;;;0.90;0.20;;;19.30;1.00;;;;;;4956730;29;20370;-60
2023/03/11 11:31:38;;;;;;;0.50;0.15;;;19.50;1.00;;;;;;4926906;29;20397;-60
2023/03/11 11:34:21;;;;;;;0.43;0.10;;;19.40;1.00;;;;;;4956487;29;20078;-60
2023/03/11 11:36:46;;;;;;;0.75;0.20;;;19.40;1.00;;;;;;4956845;29;20026;-60
2023/03/11 11:39:19;;;;;;;0.70;0.10;;;19.50;1.00;;;;;;4956419;29;20449;-60
2023/03/11 11:41:47;;;;;;;4.97;0.40;;;19.70;1.00;;;;;;4956557;29;20434;-60
2023/03/11 11:44:16;;;;;;;2.40;0.60;;;19.60;1.00;;;;;;4939936;29;20039;-60
2023/03/11 11:46:52;;;;;;;1.98;0.40;;;19.50;1.00;;;;;;4956592;29;20469;-60
2023/03/11 11:49:20;;;;;;;0.20;0.20;;;19.50;1.00;;;;;;4956346;29;20028;-59
2023/03/11 11:52:31;;;;;;;1.60;0.30;;;19.70;1.00;;;;;;4942800;29;20058;-60
2023/03/11 11:55:01;;;;;;;0.77;0.60;;;19.80;1.00;;;;;;4953075;29;20528;-60
2023/03/11 11:57:28;;;;;;;2.08;0.70;;;19.80;1.00;;;;;;4956045;29;20520;-61
2023/03/11 11:59:54;;;;;;;0.60;0.60;;;20.00;1.00;;;;;;4956118;29;20062;-61
2023/03/11 12:02:44;;;;;;;0.73;0.40;;;20.10;1.00;;;;;;4955750;29;20393;-61
2023/03/11 12:05:26;;;;;;;0.50;0.32;;;20.10;1.00;;;;;;4955898;29;20039;-61
2023/03/11 12:08:04;;;;;;;0.17;0.15;;;20.20;1.00;;;;;;4955723;29;20044;-62
2023/03/11 12:10:55;;;;;;;0.75;0.30;;;20.10;1.00;;;;;;4942484;29;20083;-62
2023/03/11 12:13:45;;;;;;;0.20;0.20;;;20.20;1.00;;;;;;4953784;29;20046;-62
2023/03/11 12:16:35;;;;;;;0.90;0.10;;;20.30;1.00;;;;;;4955924;29;20031;-62
2023/03/11 12:19:04;;;;;;;0.10;0.10;;;20.20;1.00;;;;;;4955661;29;20019;-62
2023/03/11 12:21:57;;;;;;;0.30;0.10;;;20.30;1.00;;;;;;4955933;29;20401;-62
2023/03/11 12:24:37;;;;;;;0.35;0.20;;;20.50;1.00;;;;;;4955896;29;20035;-62
2023/03/11 12:27:17;;;;;;;1.38;0.20;;;20.70;1.00;;;;;;4952610;29;20035;-63
2023/03/11 12:29:47;;;;;;;4.22;0.50;;;20.80;1.00;;;;;;4955709;29;20444;-62
2023/03/11 12:32:30;;;;;;;0.40;0.17;;;20.80;1.00;;;;;;4942634;29;20031;-63
2023/03/11 12:35:15;;;;;;;0.35;0.10;;;21.00;1.00;;;;;;4955538;28;20046;-62
2023/03/11 12:37:41;;;;;;;0.25;0.17;;;20.90;1.00;;;;;;4955446;29;20031;-63
2023/03/11 12:40:41;;;;;;;1.73;0.10;;;21.00;1.00;;;;;;4955386;29;20039;-62
2023/03/11 12:43:32;;;;;;;0.77;0.70;;;21.20;1.00;;;;;;4955541;29;20058;-63
2023/03/11 12:46:03;;;;;;;0.10;0.10;;;21.30;1.00;;;;;;4955522;29;20066;-63
2023/03/11 12:48:28;;;;;;;1.65;0.10;;;21.40;1.00;;;;;;4955322;29;20104;-62
2023/03/11 12:50:56;;;;;;;0.75;0.10;;;21.50;1.00;;;;;;4955553;29;20031;-63
2023/03/11 12:53:45;;;;;;;0.98;0.10;;;21.70;1.00;;;;;;4955201;29;20585;-63
2023/03/11 12:56:36;;;;;;;0.20;0.20;;;21.70;1.00;;;;;;4938125;29;20031;-63
2023/03/11 12:59:01;;;;;;;0.20;0.15;;;21.70;1.00;;;;;;4942855;29;20036;-63
2023/03/11 13:01:45;;;;;;;0.82;0.10;;;21.80;1.00;;;;;;4955027;29;20028;-62
2023/03/11 13:04:37;;;;;;;1.50;0.30;;;21.90;1.00;;;;;;4955110;29;20032;-62
2023/03/11 13:07:08;;;;;;;0.90;0.70;;;22.30;1.00;;;;;;4954922;29;20488;-63
2023/03/11 13:09:34;;;;;;;1.40;0.30;;;22.30;1.00;;;;;;4954989;29;20035;-62